Terminal Aerodrome Forecast
Issued by NWS

Home | Current Version | Previous Version | Text Only | Print | Product List | Glossary On
Versions: 1 2 3 4 5 6 7 8 9 10 11 12 13 14 15 16 17 18 19 20 21 22 23 24 25 26 27 28 29 30 31 32 33 34 35 36 37 38 39 40 41 42 43 44
000
FTUS45 KGJT 282335
TAFDRO
TAF
KDRO 282335Z 0100/0124 12005KT 3SM -SN BR SCT007 BKN030 OVC050
     FM010200 07003KT 1 1/2SM -SN BR BKN007 BKN015 OVC025
      TEMPO 0108/0112 4SM -SN BR SCT007 OVC025=

USA.gov is the U.S. government's official web portal to all federal, state and local government web resources and services.